Gorodets, Russia
Current Conditions -  °F | °C
As of 4:00 AM on Tuesday 27 Jan 2015 (Local Time) from UWGG Reporting Station
Light Snow Light Snow  
Wind Chill:   Ceiling: 1500
Heat Index: 14°   Visibility: 6mi
Dew Point:   Wind: 4mph
Humidity: 79%   Direction: NA
Pressure: 30.3"   Gusts: NA
Location:  56.65°N, 43.48°E
Report Text: UWGG 270100Z VRB02MPS 9999 -SN OVC015 M10/M13 Q1026 NOSIG18450242 RMK QFE762
Loading
Personal Weather Stations






























Interactive Weather Map New forecast layout! Learn more

10-Day Weather Forecast

Advertisements
Track Severe Weather on mobile